Time;durP1;ratioP1;P1;durP2;ratioP2;P2;SDS_P1;SDS_P2;PMS_P1;PMS_P2;Temp;Humidity;BMP_temperature;BMP_pressure;BME280_temperature;BME280_humidity;BME280_pressure;Samples;Min_cycle;Max_cycle;Signal;HPM_P1;HPM_P2
2023/04/28 00:02:17;;;;;;;0.50;0.50;;;;;;;10.75;49.93;97020.22;5043152;28;20564;-60
2023/04/28 00:04:44;;;;;;;0.50;0.50;;;;;;;10.81;50.91;97016.75;5043023;28;20049;-62
2023/04/28 00:07:11;;;;;;;0.50;0.50;;;;;;;10.73;51.41;97017.00;5042902;28;20059;-60
2023/04/28 00:09:38;;;;;;;0.50;0.50;;;;;;;10.73;51.14;97018.59;5042999;28;20581;-60
2023/04/28 00:12:04;;;;;;;0.50;0.50;;;;;;;10.77;50.49;97015.09;5043405;28;20072;-60
2023/04/28 00:14:31;;;;;;;0.60;0.60;;;;;;;10.08;52.05;96916.66;5041121;28;20617;-60
2023/04/28 00:16:58;;;;;;;0.50;0.50;;;;;;;10.70;50.78;97033.19;5045547;28;20106;-60
2023/04/28 00:19:25;;;;;;;0.50;0.50;;;;;;;10.67;50.89;97016.50;5045049;28;20106;-60
2023/04/28 00:21:51;;;;;;;0.50;0.50;;;;;;;10.69;50.78;97014.19;5046835;28;20490;-61
2023/04/28 00:24:18;;;;;;;0.50;0.50;;;;;;;10.50;51.30;97023.38;5046207;28;20045;-60
2023/04/28 00:26:44;;;;;;;0.50;0.50;;;;;;;10.58;51.47;97014.00;5044915;28;20080;-60
2023/04/28 00:29:11;;;;;;;0.50;0.50;;;;;;;10.24;51.23;96965.16;5046096;28;20569;-60
2023/04/28 00:31:38;;;;;;;0.50;0.50;;;;;;;10.55;51.60;97025.84;5046978;28;20052;-60
2023/04/28 00:34:04;;;;;;;0.50;0.50;;;;;;;10.55;51.76;97028.59;5046123;28;20438;-60
2023/04/28 00:36:32;;;;;;;0.50;0.50;;;;;;;10.33;52.86;97023.88;5046634;28;20049;-60
2023/04/28 00:38:58;;;;;;;0.50;0.50;;;;;;;10.34;53.68;97031.00;5046274;28;20122;-61
2023/04/28 00:41:25;;;;;;;0.50;0.50;;;;;;;10.16;54.92;97029.88;5046769;28;20049;-60
2023/04/28 00:43:52;;;;;;;0.43;0.43;;;;;;;9.91;55.68;96998.16;5045775;28;20048;-60
2023/04/28 00:46:25;;;;;;;0.50;0.50;;;;;;;9.95;56.09;97028.66;5046547;28;20518;-60
2023/04/28 00:48:52;;;;;;;0.50;0.50;;;;;;;9.34;56.72;96942.13;5046006;28;20052;-63
2023/04/28 00:51:20;;;;;;;0.50;0.50;;;;;;;9.81;56.77;97028.38;5046719;28;20197;-59
2023/04/28 00:53:47;;;;;;;0.50;0.50;;;;;;;9.79;56.21;97031.53;5046088;28;20125;-59
2023/04/28 00:56:14;;;;;;;0.50;0.50;;;;;;;9.16;56.05;96914.13;5045986;28;20591;-61
2023/04/28 00:58:41;;;;;;;0.40;0.40;;;;;;;9.89;55.36;97030.94;5044522;28;20053;-60
2023/04/28 01:01:09;;;;;;;0.40;0.40;;;;;;;9.82;56.78;97041.84;5045891;28;20138;-59
2023/04/28 01:03:38;;;;;;;0.50;0.50;;;;;;;9.70;55.77;97033.72;5046033;28;20052;-59
2023/04/28 01:06:07;;;;;;;0.50;0.50;;;;;;;9.70;56.82;97035.69;5045451;28;20053;-60
2023/04/28 01:08:35;;;;;;;0.40;0.40;;;;;;;9.16;56.33;96955.59;5045887;28;20092;-59
2023/04/28 01:11:02;;;;;;;0.40;0.40;;;;;;;9.61;56.22;97046.94;5045533;28;20094;-59
2023/04/28 01:13:29;;;;;;;0.40;0.40;;;;;;;9.60;56.19;97045.34;5045893;28;20056;-59
2023/04/28 01:15:55;;;;;;;0.50;0.50;;;;;;;9.61;56.54;97052.47;5045504;28;20080;-61
2023/04/28 01:18:23;;;;;;;0.40;0.40;;;;;;;9.39;57.29;97033.84;5046027;28;20052;-59
2023/04/28 01:20:49;;;;;;;0.40;0.40;;;;;;;9.22;57.00;96990.06;5044216;28;20379;-60
2023/04/28 01:23:16;;;;;;;0.47;0.47;;;;;;;9.60;56.98;97045.34;5044202;28;20053;-59
2023/04/28 01:25:43;;;;;;;0.50;0.50;;;;;;;9.44;57.68;97035.53;5045366;28;20476;-59
2023/04/28 01:28:10;;;;;;;0.40;0.40;;;;;;;9.49;58.94;97052.63;5044393;28;20057;-60
2023/04/28 01:30:37;;;;;;;0.45;0.45;;;;;;;9.48;58.85;97055.75;5045403;28;20601;-60
2023/04/28 01:33:03;;;;;;;0.40;0.40;;;;;;;9.28;58.89;97038.34;5045499;28;20049;-60
2023/04/28 01:35:30;;;;;;;0.40;0.40;;;;;;;8.99;58.18;96989.16;5045044;28;20111;-59
2023/04/28 01:37:57;;;;;;;0.40;0.40;;;;;;;9.25;59.18;97066.72;5045247;28;20049;-60
2023/04/28 01:40:23;;;;;;;0.40;0.40;;;;;;;9.08;59.28;97039.47;5043633;28;20056;-60
2023/04/28 01:42:50;;;;;;;0.47;0.47;;;;;;;9.25;60.03;97071.47;5045171;28;20126;-59
2023/04/28 01:45:17;;;;;;;0.40;0.40;;;;;;;8.41;60.29;96965.34;5044704;28;20576;-59
2023/04/28 01:47:43;;;;;;;0.40;0.40;;;;;;;8.95;61.59;97068.38;5043661;28;20060;-59
2023/04/28 01:50:10;;;;;;;0.40;0.40;;;;;;;8.88;61.43;97068.22;5044850;28;20426;-59
2023/04/28 01:52:37;;;;;;;0.40;0.40;;;;;;;8.00;62.09;96955.59;5045123;28;20085;-60
2023/04/28 01:55:04;;;;;;;0.40;0.40;;;;;;;8.40;63.06;97074.13;5044628;28;20098;-59
2023/04/28 01:57:32;;;;;;;0.40;0.40;;;;;;;8.46;63.32;97067.16;5044756;28;20049;-59
2023/04/28 01:59:59;;;;;;;0.40;0.40;;;;;;;8.37;64.08;97077.59;5043091;28;20044;-61
2023/04/28 02:02:26;;;;;;;0.40;0.40;;;;;;;8.49;62.79;97074.75;5044824;28;20102;-60
2023/04/28 02:04:52;;;;;;;0.40;0.40;;;;;;;8.40;62.01;97066.66;5044656;28;20057;-59
2023/04/28 02:07:19;;;;;;;0.40;0.40;;;;;;;8.18;62.55;97033.31;5043308;28;20052;-60
2023/04/28 02:09:46;;;;;;;0.40;0.40;;;;;;;8.34;64.07;97075.53;5044678;28;20088;-59
2023/04/28 02:12:12;;;;;;;0.40;0.40;;;;;;;8.33;64.45;97073.94;5043276;28;20354;-60
2023/04/28 02:14:39;;;;;;;0.40;0.40;;;;;;;8.26;64.29;97073.75;5044330;28;20053;-60
2023/04/28 02:17:05;;;;;;;0.40;0.40;;;;;;;8.35;63.88;97077.13;5044466;28;20063;-61
2023/04/28 02:19:32;;;;;;;0.30;0.30;;;;;;;7.74;63.15;96977.41;5044467;28;20123;-60
2023/04/28 02:21:59;;;;;;;0.30;0.30;;;;;;;7.95;63.97;97013.00;5044168;28;20140;-62
2023/04/28 02:24:25;;;;;;;0.30;0.30;;;;;;;8.48;63.86;97081.44;5044772;28;20440;-61
2023/04/28 02:26:52;;;;;;;0.40;0.40;;;;;;;8.47;64.11;97085.34;5024064;28;20085;-61
2023/04/28 02:29:19;;;;;;;0.40;0.40;;;;;;;8.20;64.47;97081.47;5024853;28;20425;-60
2023/04/28 02:31:45;;;;;;;0.30;0.30;;;;;;;7.95;65.15;97085.50;5022760;28;20123;-61
2023/04/28 02:34:13;;;;;;;0.40;0.40;;;;;;;8.08;65.35;97091.78;5024075;28;20053;-60
2023/04/28 02:36:40;;;;;;;0.40;0.40;;;;;;;7.91;64.53;97058.97;5021554;28;20045;-60
2023/04/28 02:39:06;;;;;;;0.40;0.40;;;;;;;8.26;64.29;97106.88;5021766;28;20563;-60
2023/04/28 02:41:33;;;;;;;0.40;0.40;;;;;;;8.30;64.04;97113.28;5022992;28;20118;-60
2023/04/28 02:44:00;;;;;;;0.32;0.32;;;;;;;8.08;64.70;97111.09;5023141;28;20057;-62
2023/04/28 02:46:26;;;;;;;0.40;0.40;;;;;;;8.11;64.09;97115.91;5023209;28;20062;-60
2023/04/28 02:48:53;;;;;;;0.40;0.40;;;;;;;8.10;63.57;97114.28;5021932;28;20142;-61
2023/04/28 02:51:20;;;;;;;0.30;0.30;;;;;;;7.75;63.46;97081.00;5023775;28;20057;-60
2023/04/28 02:53:46;;;;;;;0.40;0.40;;;;;;;8.26;63.54;97123.41;5024208;28;20049;-60
2023/04/28 02:56:13;;;;;;;0.30;0.30;;;;;;;8.20;63.39;97130.31;5024125;28;20495;-60
2023/04/28 02:58:39;;;;;;;0.30;0.30;;;;;;;8.17;64.46;97142.06;5024273;28;20080;-60
2023/04/28 03:01:06;;;;;;;0.40;0.40;;;;;;;8.17;63.51;97147.59;5039250;28;20049;-60
2023/04/28 03:03:33;;;;;;;0.40;0.40;;;;;;;8.18;64.41;97140.91;5024017;28;20428;-61
2023/04/28 03:06:00;;;;;;;0.40;0.40;;;;;;;7.76;64.25;97087.31;5024277;28;20164;-61
2023/04/28 03:08:27;;;;;;;0.40;0.40;;;;;;;8.09;64.76;97146.59;5024137;28;20578;-60
2023/04/28 03:10:53;;;;;;;0.30;0.30;;;;;;;8.02;64.56;97145.56;5023564;28;20053;-60
2023/04/28 03:13:20;;;;;;;0.30;0.30;;;;;;;7.99;64.91;97151.78;5023752;28;20041;-61
2023/04/28 03:15:46;;;;;;;0.40;0.40;;;;;;;7.97;64.51;97154.09;5023879;28;20119;-61
2023/04/28 03:18:13;;;;;;;0.30;0.30;;;;;;;7.90;64.11;97157.47;5023766;28;20524;-60
2023/04/28 03:20:40;;;;;;;0.40;0.40;;;;;;;7.57;65.19;97152.16;5023160;28;20618;-61
2023/04/28 03:23:06;;;;;;;0.30;0.30;;;;;;;7.39;65.87;97086.63;5023722;28;20045;-60
2023/04/28 03:25:33;;;;;;;0.40;0.40;;;;;;;7.73;65.65;97161.31;5032165;28;20668;-60
2023/04/28 03:27:59;;;;;;;0.40;0.40;;;;;;;7.65;67.12;97169.69;5043627;28;20065;-61
2023/04/28 03:30:26;;;;;;;0.38;0.38;;;;;;;7.48;68.17;97131.38;5043444;28;20084;-60
2023/04/28 03:32:53;;;;;;;0.40;0.40;;;;;;;7.63;68.29;97172.81;5043573;28;20381;-61
2023/04/28 03:35:20;;;;;;;0.30;0.30;;;;;;;7.66;68.46;97172.13;5043671;28;20087;-61
2023/04/28 03:37:47;;;;;;;0.30;0.30;;;;;;;7.41;67.06;97142.22;5043397;28;20056;-60
2023/04/28 03:40:14;;;;;;;0.40;0.40;;;;;;;7.17;67.09;97093.47;5042051;28;20045;-60
2023/04/28 03:42:40;;;;;;;0.30;0.30;;;;;;;7.73;67.11;97199.09;5043498;28;20068;-60
2023/04/28 03:45:07;;;;;;;0.40;0.40;;;;;;;6.93;66.54;97071.47;5043179;28;20088;-60
2023/04/28 03:47:34;;;;;;;0.32;0.32;;;;;;;7.69;65.23;97174.19;5043270;28;20057;-60
2023/04/28 03:50:01;;;;;;;0.40;0.40;;;;;;;7.92;65.85;97206.75;5043617;28;20461;-60
2023/04/28 03:52:28;;;;;;;0.30;0.30;;;;;;;7.81;66.20;97189.09;5044873;28;20076;-61
2023/04/28 03:54:54;;;;;;;0.40;0.40;;;;;;;7.99;64.88;97201.44;5047374;28;20059;-60
2023/04/28 03:57:21;;;;;;;0.40;0.40;;;;;;;7.97;65.20;97203.75;5046814;28;20061;-60
2023/04/28 03:59:47;;;;;;;0.40;0.40;;;;;;;7.88;64.79;97205.84;5047315;28;20080;-60
2023/04/28 04:02:14;;;;;;;0.40;0.40;;;;;;;7.99;64.01;97206.97;5046585;28;20044;-60
2023/04/28 04:04:41;;;;;;;0.40;0.40;;;;;;;7.87;63.60;97162.88;5047508;28;20482;-61
2023/04/28 04:07:08;;;;;;;0.40;0.40;;;;;;;8.27;63.84;97218.84;5047311;28;20048;-60
2023/04/28 04:09:35;;;;;;;0.40;0.40;;;;;;;8.38;63.16;97209.72;5047074;28;20577;-61
2023/04/28 04:12:01;;;;;;;0.40;0.40;;;;;;;8.54;62.97;97240.94;5046645;28;20049;-61
2023/04/28 04:14:28;;;;;;;0.40;0.40;;;;;;;8.26;62.52;97193.22;5045242;28;20060;-62
2023/04/28 04:16:54;;;;;;;0.40;0.40;;;;;;;8.59;62.41;97226.06;5046862;28;20149;-61
2023/04/28 04:19:22;;;;;;;0.40;0.40;;;;;;;8.71;62.45;97226.00;5046795;28;20049;-61
2023/04/28 04:21:49;;;;;;;0.50;0.50;;;;;;;8.72;62.18;97230.38;5045124;28;20059;-60
2023/04/28 04:24:16;;;;;;;0.40;0.40;;;;;;;8.25;62.10;97155.72;5046429;28;20516;-61
2023/04/28 04:26:43;;;;;;;0.50;0.50;;;;;;;8.87;62.07;97230.38;5046674;28;20879;-61
2023/04/28 04:29:09;;;;;;;0.40;0.40;;;;;;;8.69;61.46;97184.91;5045410;28;20318;-61
2023/04/28 04:31:36;;;;;;;0.40;0.40;;;;;;;9.16;60.53;97241.03;5046537;28;20087;-61
2023/04/28 04:34:03;;;;;;;0.40;0.40;;;;;;;9.38;60.02;97242.34;5046741;28;20127;-61
2023/04/28 04:36:31;;;;;;;0.40;0.40;;;;;;;9.52;59.24;97248.22;5046279;28;20110;-61
2023/04/28 04:38:58;;;;;;;0.40;0.40;;;;;;;9.53;57.36;97238.75;5046283;28;20464;-61
2023/04/28 04:41:25;;;;;;;0.40;0.40;;;;;;;9.77;56.76;97255.16;5044990;28;20068;-61
2023/04/28 04:43:52;;;;;;;0.40;0.40;;;;;;;9.94;57.27;97263.03;5037295;28;20061;-61
2023/04/28 04:46:19;;;;;;;0.50;0.50;;;;;;;10.10;56.06;97252.00;5024442;28;20061;-61
2023/04/28 04:48:45;;;;;;;0.50;0.50;;;;;;;9.86;56.95;97213.47;5024729;28;20056;-61
2023/04/28 04:51:12;;;;;;;0.50;0.50;;;;;;;10.23;55.50;97254.25;5024751;28;20045;-62
2023/04/28 04:53:39;;;;;;;0.50;0.50;;;;;;;10.39;55.84;97274.38;5025892;28;20068;-62
2023/04/28 04:56:05;;;;;;;0.50;0.50;;;;;;;10.60;56.90;97246.31;5026478;28;20057;-61
2023/04/28 04:58:32;;;;;;;0.50;0.50;;;;;;;10.61;55.05;97262.56;5024471;28;20049;-61
2023/04/28 05:00:59;;;;;;;0.50;0.50;;;;;;;10.64;54.45;97234.13;5026368;28;20111;-61
2023/04/28 05:03:25;;;;;;;0.50;0.50;;;;;;;10.93;54.67;97268.75;5024898;28;20112;-61
2023/04/28 05:05:52;;;;;;;0.50;0.50;;;;;;;11.24;53.76;97267.75;5026035;28;20057;-61
2023/04/28 05:08:19;;;;;;;0.50;0.50;;;;;;;11.30;53.23;97271.81;5024863;28;20068;-62
2023/04/28 05:10:45;;;;;;;0.50;0.50;;;;;;;11.40;52.92;97273.94;5024358;28;20145;-61
2023/04/28 05:13:12;;;;;;;0.50;0.50;;;;;;;11.38;51.83;97284.63;5041011;28;20577;-61
2023/04/28 05:15:39;;;;;;;0.50;0.50;;;;;;;10.53;52.31;97155.56;5025621;28;20059;-62
2023/04/28 05:18:09;;;;;;;0.50;0.50;;;;;;;11.44;51.78;97277.59;5025875;28;20582;-61
2023/04/28 05:20:36;;;;;;;0.60;0.60;;;;;;;11.53;51.03;97301.13;5025857;28;20064;-61
2023/04/28 05:23:03;;;;;;;0.52;0.52;;;;;;;11.48;51.45;97290.34;5025410;28;20132;-62
2023/04/28 05:25:30;;;;;;;0.50;0.50;;;;;;;11.52;51.22;97287.66;5026157;28;20103;-61
2023/04/28 05:27:56;;;;;;;0.50;0.50;;;;;;;11.45;50.72;97284.72;5025498;28;20041;-60
2023/04/28 05:30:23;;;;;;;0.50;0.50;;;;;;;11.53;49.97;97308.66;5042568;28;20612;-63
2023/04/28 05:32:50;;;;;;;0.50;0.50;;;;;;;11.55;50.04;97289.66;5042391;28;20353;-62
2023/04/28 05:35:16;;;;;;;0.60;0.60;;;;;;;11.36;49.58;97237.84;5043912;28;20071;-62
2023/04/28 05:37:43;;;;;;;0.50;0.50;;;;;;;11.86;49.63;97297.75;5044762;28;20057;-60
2023/04/28 05:40:10;;;;;;;0.50;0.50;;;;;;;11.73;49.41;97301.88;5043675;28;20045;-62
2023/04/28 05:42:37;;;;;;;0.50;0.50;;;;;;;11.62;49.21;97296.13;5044521;28;20088;-62
2023/04/28 05:45:05;;;;;;;0.52;0.52;;;;;;;11.31;50.02;97195.75;5044956;28;20504;-63
2023/04/28 05:47:32;;;;;;;0.50;0.50;;;;;;;12.26;48.82;97303.53;5044933;28;20049;-63
2023/04/28 05:49:59;;;;;;;0.50;0.50;;;;;;;12.20;48.24;97300.25;5038755;28;20795;-63
2023/04/28 05:52:26;;;;;;;0.52;0.52;;;;;;;12.12;48.19;97281.09;5041656;28;20052;-58
2023/04/28 05:54:53;;;;;;;0.50;0.50;;;;;;;12.43;48.26;97319.66;5044535;28;20385;-62
2023/04/28 05:57:20;;;;;;;0.60;0.60;;;;;;;12.51;47.88;97304.69;5042800;28;20214;-62
2023/04/28 05:59:46;;;;;;;0.60;0.60;;;;;;;12.69;48.11;97318.81;5025647;28;20053;-65
2023/04/28 06:02:13;;;;;;;0.60;0.60;;;;;;;11.98;47.86;97236.47;5054823;28;20053;-66
2023/04/28 06:04:40;;;;;;;0.50;0.50;;;;;;;12.69;48.24;97322.41;5044548;28;20357;-60
2023/04/28 06:07:07;;;;;;;0.52;0.52;;;;;;;12.08;48.83;97325.47;5043127;28;20141;-63
2023/04/28 06:09:34;;;;;;;0.60;0.60;;;;;;;12.53;49.27;97318.19;5042797;28;20436;-60
2023/04/28 06:12:00;;;;;;;0.60;0.60;;;;;;;12.76;48.86;97325.25;5043983;28;20099;-62
2023/04/28 06:14:27;;;;;;;0.60;0.60;;;;;;;12.67;48.79;97323.94;5043778;28;20056;-59
2023/04/28 06:16:54;;;;;;;0.60;0.60;;;;;;;11.91;47.56;97241.91;5039300;28;20049;-61
2023/04/28 06:19:20;;;;;;;0.50;0.50;;;;;;;12.58;48.30;97320.66;5022732;28;20053;-62
2023/04/28 06:21:50;;;;;;;0.60;0.60;;;;;;;11.82;47.69;97205.31;5025484;28;20452;-63
2023/04/28 06:24:16;;;;;;;0.60;0.60;;;;;;;12.49;48.22;97329.25;5024495;28;20053;-64
2023/04/28 06:26:44;;;;;;;0.60;0.60;;;;;;;11.54;48.21;97215.94;5027598;28;20080;-62
2023/04/28 06:29:10;;;;;;;0.60;0.60;;;;;;;10.55;47.97;97048.00;5043259;28;20045;-68
2023/04/28 06:31:37;;;;;;;0.60;0.60;;;;;;;11.85;48.04;97243.41;5041897;28;20053;-69
2023/04/28 06:34:04;;;;;;;0.60;0.60;;;;;;;12.57;48.02;97336.50;5041131;28;20132;-63
2023/04/28 06:36:31;;;;;;;0.50;0.50;;;;;;;12.10;47.83;97236.25;5042871;28;20503;-63
2023/04/28 06:38:58;;;;;;;0.60;0.60;;;;;;;12.68;46.67;97304.09;5036387;28;20291;-62
2023/04/28 06:41:25;;;;;;;0.60;0.60;;;;;;;12.78;47.28;97330.44;5043250;28;20126;-61
2023/04/28 06:43:51;;;;;;;0.50;0.50;;;;;;;12.58;46.93;97254.75;5042325;28;20135;-62
2023/04/28 06:46:18;;;;;;;0.60;0.60;;;;;;;12.22;47.38;97219.34;5033615;28;20053;-59
2023/04/28 06:48:45;;;;;;;0.60;0.60;;;;;;;12.82;46.89;97284.03;5022256;28;20387;-66
2023/04/28 06:51:11;;;;;;;0.60;0.60;;;;;;;13.35;46.04;97328.00;5030029;28;20084;-58
2023/04/28 06:53:38;;;;;;;0.60;0.60;;;;;;;13.28;46.36;97327.91;5028376;28;20539;-61
2023/04/28 06:56:05;;;;;;;0.60;0.60;;;;;;;13.44;46.08;97331.25;5042023;28;20059;-60
2023/04/28 06:58:33;;;;;;;0.60;0.60;;;;;;;12.54;45.39;97164.16;5040193;28;20080;-62
2023/04/28 07:01:02;;;;;;;0.60;0.60;;;;;;;13.66;45.37;97338.63;5043588;28;20060;-60
2023/04/28 07:03:31;;;;;;;0.60;0.60;;;;;;;13.45;45.81;97335.63;5037182;28;20136;-61
2023/04/28 07:05:58;;;;;;;0.60;0.60;;;;;;;13.47;45.64;97322.13;5026471;28;20045;-61
2023/04/28 07:08:25;;;;;;;0.60;0.60;;;;;;;13.75;45.69;97340.31;5044453;28;20060;-59
2023/04/28 07:10:52;;;;;;;0.60;0.60;;;;;;;13.85;45.03;97339.63;5042300;28;20128;-62
2023/04/28 07:13:18;;;;;;;0.60;0.60;;;;;;;11.94;44.69;97008.78;5046425;28;20329;-65
2023/04/28 07:15:45;;;;;;;0.60;0.60;;;;;;;14.16;45.02;97339.06;5041605;28;20075;-61
2023/04/28 07:18:12;;;;;;;0.55;0.55;;;;;;;13.95;43.92;97291.53;5043192;28;20052;-60
2023/04/28 07:20:39;;;;;;;0.60;0.60;;;;;;;14.32;43.76;97315.31;5043036;28;20544;-61
2023/04/28 07:23:05;;;;;;;0.70;0.70;;;;;;;14.65;43.27;97342.22;5040030;28;20041;-59
2023/04/28 07:25:32;;;;;;;0.60;0.60;;;;;;;14.75;42.98;97344.25;5022987;28;20072;-62
2023/04/28 07:27:58;;;;;;;0.70;0.70;;;;;;;14.51;42.84;97344.94;5029660;28;20488;-63
2023/04/28 07:30:25;;;;;;;0.70;0.70;;;;;;;14.09;43.71;97272.94;5029302;28;20056;-61
2023/04/28 07:32:54;;;;;;;0.63;0.63;;;;;;;14.51;43.12;97339.34;5047629;28;20114;-64
2023/04/28 07:35:21;;;;;;;0.60;0.60;;;;;;;14.39;42.91;97336.88;5047048;28;20135;-60
2023/04/28 07:37:48;;;;;;;0.60;0.60;;;;;;;14.57;42.38;97337.81;5045209;28;20063;-62
2023/04/28 07:40:14;;;;;;;0.60;0.60;;;;;;;14.49;43.19;97341.72;5045957;28;20489;-61
2023/04/28 07:42:41;;;;;;;0.70;0.70;;;;;;;14.46;41.90;97326.56;5052820;28;20080;-63
2023/04/28 07:45:09;;;;;;;0.70;0.70;;;;;;;14.72;42.80;97333.88;5046486;28;20053;-57
2023/04/28 07:47:36;;;;;;;0.68;0.68;;;;;;;14.99;41.90;97338.00;5047321;28;20048;-63
2023/04/28 07:50:05;;;;;;;0.70;0.70;;;;;;;15.17;41.24;97328.50;5044784;28;20068;-61
2023/04/28 07:52:32;;;;;;;0.70;0.70;;;;;;;15.07;40.58;97306.97;5043571;28;20443;-67
2023/04/28 07:54:59;;;;;;;0.70;0.70;;;;;;;15.54;41.21;97331.06;5046852;28;20484;-69
2023/04/28 07:57:28;;;;;;;0.70;0.70;;;;;;;15.59;40.07;97333.47;5040783;28;20422;-59
2023/04/28 07:59:54;;;;;;;0.75;0.75;;;;;;;15.61;40.64;97335.84;5046354;28;20049;-59
2023/04/28 08:02:21;;;;;;;0.60;0.60;;;;;;;15.41;39.81;97343.81;5041158;28;20053;-62
2023/04/28 08:04:48;;;;;;;0.70;0.70;;;;;;;15.56;40.19;97339.84;5026661;28;20049;-60
2023/04/28 08:07:15;;;;;;;0.65;0.65;;;;;;;15.27;40.02;97271.13;5044775;28;20076;-62
2023/04/28 08:09:45;;;;;;;0.70;0.70;;;;;;;16.03;39.29;97319.13;4997826;28;20658;-60
2023/04/28 08:12:13;;;;;;;0.70;0.70;;;;;;;16.33;38.77;97317.53;5006093;28;20046;-62
2023/04/28 08:14:40;;;;;;;0.70;0.70;;;;;;;16.49;38.15;97309.56;5006142;28;20623;-60
2023/04/28 08:17:07;;;;;;;0.70;0.70;;;;;;;16.50;37.77;97310.34;5002275;28;20352;-60
2023/04/28 08:19:34;;;;;;;0.70;0.70;;;;;;;16.68;37.84;97310.31;5004151;28;20057;-65
2023/04/28 08:22:04;;;;;;;0.70;0.70;;;;;;;16.49;38.61;97314.34;5005321;28;20069;-61
2023/04/28 08:24:33;;;;;;;0.70;0.70;;;;;;;16.83;38.24;97286.69;5019256;28;20253;-61
2023/04/28 08:27:02;;;;;;;0.80;0.80;;;;;;;16.91;37.51;97291.06;5006358;28;20050;-69
2023/04/28 08:29:30;;;;;;;0.80;0.80;;;;;;;16.42;38.19;97220.03;5005973;28;20049;-58
2023/04/28 08:31:57;;;;;;;0.80;0.80;;;;;;;16.98;37.81;97349.78;5005487;28;20050;-61
2023/04/28 08:34:24;;;;;;;0.80;0.80;;;;;;;16.93;37.62;97299.84;5006923;28;20060;-64
2023/04/28 08:36:51;;;;;;;0.77;0.77;;;;;;;16.81;36.49;97191.16;5012825;28;20084;-67
2023/04/28 08:39:21;;;;;;;0.80;0.80;;;;;;;17.49;36.15;97249.16;4990354;28;20424;-64
2023/04/28 08:41:48;;;;;;;0.80;0.80;;;;;;;16.72;37.17;97299.91;5001922;28;20542;-64
2023/04/28 08:44:15;;;;;;;0.70;0.70;;;;;;;16.67;38.66;97225.59;5001231;28;20313;-64
2023/04/28 08:46:44;;;;;;;0.75;0.75;;;;;;;17.50;38.18;97273.97;5001311;28;20065;-62
2023/04/28 08:49:16;;;;;;;0.90;0.90;;;;;;;17.95;36.64;97280.44;4986510;28;20164;-62
2023/04/28 08:51:54;;;;;;;0.80;0.80;;;;;;;17.89;37.12;97196.00;4987215;28;20492;-62
2023/04/28 08:54:22;;;;;;;0.80;0.80;;;;;;;18.29;35.86;97258.91;5001352;28;20199;-63
2023/04/28 08:56:56;;;;;;;0.80;0.80;;;;;;;18.74;34.75;97291.34;4986392;28;20157;-63
2023/04/28 08:59:23;;;;;;;0.82;0.82;;;;;;;18.64;34.88;97275.41;4986907;28;20121;-63
2023/04/28 09:01:50;;;;;;;0.80;0.80;;;;;;;17.61;35.33;97136.63;4986401;28;20072;-64
2023/04/28 09:04:17;;;;;;;0.70;0.70;;;;;;;18.24;35.51;97281.00;4986036;28;20481;-64
2023/04/28 09:06:45;;;;;;;0.70;0.70;;;;;;;18.02;36.08;97274.78;4992923;28;20062;-64
2023/04/28 09:09:30;;;;;;;0.80;0.80;;;;;;;16.50;36.76;97176.91;4986639;28;20058;-65
2023/04/28 09:12:03;;;;;;;0.80;0.80;;;;;;;17.08;37.05;97284.56;4986547;28;20054;-63
2023/04/28 09:14:33;;;;;;;0.73;0.73;;;;;;;16.31;37.72;97282.78;4994688;28;20045;-66
2023/04/28 09:17:01;;;;;;;0.77;0.77;;;;;;;16.74;37.38;97280.72;5003373;28;20493;-63
2023/04/28 09:19:35;;;;;;;0.75;0.75;;;;;;;16.68;37.39;97226.41;4987943;28;20129;-62
2023/04/28 09:22:02;;;;;;;0.70;0.70;;;;;;;16.63;37.55;97168.06;5000618;28;20062;-62
2023/04/28 09:24:49;;;;;;;0.70;0.70;;;;;;;17.67;36.77;97255.47;4986354;28;20065;-63
2023/04/28 09:27:26;;;;;;;0.80;0.80;;;;;;;17.10;36.94;97136.63;4985665;28;20093;-64
2023/04/28 09:29:53;;;;;;;0.80;0.80;;;;;;;14.07;39.09;96991.19;4986400;28;20062;-65
2023/04/28 09:32:21;;;;;;;0.70;0.70;;;;;;;14.96;40.26;97227.22;5000226;28;20077;-63
2023/04/28 09:34:50;;;;;;;0.70;0.70;;;;;;;15.66;40.67;97260.06;4985996;28;20120;-65
2023/04/28 09:37:25;;;;;;;0.70;0.70;;;;;;;15.97;40.31;97248.88;5000417;28;20054;-62
2023/04/28 09:39:53;;;;;;;0.70;0.70;;;;;;;15.20;40.37;97259.97;4985697;28;20156;-63
2023/04/28 09:42:36;;;;;;;0.70;0.70;;;;;;;16.12;38.78;97253.25;4985284;28;20058;-63
2023/04/28 09:45:05;;;;;;;0.70;0.70;;;;;;;16.36;39.72;97249.63;5000616;28;20128;-66
2023/04/28 09:47:37;;;;;;;0.63;0.63;;;;;;;16.67;39.63;97253.56;4985826;28;20172;-65
2023/04/28 09:50:08;;;;;;;0.70;0.70;;;;;;;16.90;38.70;97250.28;4985293;28;20077;-66
2023/04/28 09:52:35;;;;;;;0.80;0.80;;;;;;;16.89;38.68;97248.69;4985409;28;20584;-67
2023/04/28 09:55:07;;;;;;;0.70;0.70;;;;;;;17.38;38.39;97240.00;4985978;28;20054;-66
2023/04/28 09:57:35;;;;;;;0.80;0.80;;;;;;;17.52;37.65;97234.34;4985402;28;20141;-63
2023/04/28 10:00:05;;;;;;;0.80;0.80;;;;;;;17.77;37.03;97230.16;5016795;28;20054;-63
2023/04/28 10:02:36;;;;;;;0.80;0.80;;;;;;;17.71;37.39;97205.78;4984912;28;20612;-65
2023/04/28 10:05:08;;;;;;;0.80;0.80;;;;;;;18.26;36.82;97186.81;4975641;28;20565;-65
2023/04/28 10:07:36;;;;;;;0.80;0.80;;;;;;;16.93;35.74;96930.47;4985310;28;20129;-64
2023/04/28 10:10:04;;;;;;;0.88;0.88;;;;;;;17.90;35.14;97147.16;4985096;28;20565;-66
2023/04/28 10:12:31;;;;;;;0.80;0.80;;;;;;;18.27;34.48;97233.31;4968958;28;20149;-65
2023/04/28 10:14:58;;;;;;;0.82;0.82;;;;;;;18.29;34.74;97230.88;4985172;28;20110;-66
2023/04/28 10:17:26;;;;;;;0.80;0.80;;;;;;;17.22;35.18;97116.50;4984585;28;20090;-63
2023/04/28 10:19:53;;;;;;;0.80;0.80;;;;;;;17.65;34.59;97124.19;4985192;28;20061;-64
2023/04/28 10:22:37;;;;;;;0.80;0.80;;;;;;;17.86;34.94;97218.47;4984531;28;20112;-63
2023/04/28 10:25:13;;;;;;;0.70;0.70;;;;;;;17.00;37.52;97215.84;4985293;28;20058;-64
2023/04/28 10:27:44;;;;;;;0.70;0.70;;;;;;;15.90;38.33;97226.53;5020692;28;20537;-62
2023/04/28 10:30:20;;;;;;;0.70;0.70;;;;;;;15.97;38.66;97225.72;5018869;28;20082;-64
2023/04/28 10:33:05;;;;;;;0.70;0.70;;;;;;;16.78;37.50;97214.34;5002780;28;20527;-63
2023/04/28 10:35:35;;;;;;;0.70;0.70;;;;;;;17.20;38.10;97208.53;5004414;28;20579;-62
2023/04/28 10:38:02;;;;;;;0.73;0.73;;;;;;;17.39;37.38;97199.59;5002950;28;20066;-62
2023/04/28 10:40:35;;;;;;;0.73;0.73;;;;;;;17.30;37.73;97210.47;5003931;28;20096;-62
2023/04/28 10:43:02;;;;;;;0.80;0.80;;;;;;;16.60;37.80;97142.50;5003067;28;20596;-62
2023/04/28 10:45:48;;;;;;;0.80;0.80;;;;;;;17.36;38.27;97206.81;5002630;28;20057;-63
2023/04/28 10:48:15;;;;;;;0.80;0.80;;;;;;;17.66;37.13;97206.22;5003159;28;20071;-64
2023/04/28 10:53:45;;;;;;;0.80;0.80;;;;;;;17.83;36.55;97196.88;5004054;28;20061;-65
2023/04/28 10:56:17;;;;;;;0.90;0.90;;;;;;;17.83;35.86;97185.69;5004217;28;20237;-64
2023/04/28 10:58:50;;;;;;;0.70;0.70;;;;;;;17.83;35.86;97194.09;5004122;28;20054;-64
2023/04/28 11:01:20;;;;;;;0.80;0.80;;;;;;;18.16;35.83;97198.97;5004263;28;20131;-63
2023/04/28 11:03:47;;;;;;;0.90;0.90;;;;;;;18.57;34.25;97191.31;5002142;28;20062;-65
2023/04/28 11:06:44;;;;;;;0.80;0.80;;;;;;;18.47;34.83;97144.53;5003327;28;20176;-63
2023/04/28 11:09:11;;;;;;;0.90;0.90;;;;;;;19.14;34.87;97191.38;5001362;28;20058;-62
2023/04/28 11:11:39;;;;;;;0.90;0.90;;;;;;;19.19;35.37;97188.88;5003249;28;20546;-61
2023/04/28 11:14:18;;;;;;;0.90;0.90;;;;;;;19.19;33.95;97194.50;4999990;28;20046;-60
2023/04/28 11:16:50;;;;;;;0.80;0.80;;;;;;;19.11;34.90;97187.38;5001358;28;20049;-60
2023/04/28 11:19:23;;;;;;;0.80;0.80;;;;;;;19.39;33.35;97170.13;5001280;28;20091;-59
2023/04/28 11:21:52;;;;;;;0.80;0.80;;;;;;;19.31;32.76;97196.78;5001562;28;20053;-61
2023/04/28 11:24:19;;;;;;;0.90;0.90;;;;;;;19.16;32.33;97191.72;5003373;28;20077;-62
2023/04/28 11:26:46;;;;;;;0.90;0.90;;;;;;;19.22;32.97;97190.84;4998140;28;20166;-70
2023/04/28 11:29:16;;;;;;;0.88;0.88;;;;;;;18.89;33.71;97191.69;4983571;28;20061;-67
2023/04/28 11:31:50;;;;;;;0.80;0.80;;;;;;;16.94;33.81;96876.88;5004728;28;20104;-68
2023/04/28 11:34:21;;;;;;;0.90;0.90;;;;;;;18.47;34.96;97195.03;4998353;28;20422;-61
2023/04/28 11:36:48;;;;;;;0.80;0.80;;;;;;;18.17;34.78;97191.34;4985009;28;20062;-63
2023/04/28 11:39:15;;;;;;;0.90;0.90;;;;;;;18.62;34.12;97190.84;4989469;28;20054;-57
2023/04/28 11:41:43;;;;;;;0.90;0.90;;;;;;;19.46;34.20;97146.75;4984514;28;20069;-73
2023/04/28 11:44:18;;;;;;;0.80;0.80;;;;;;;19.10;33.82;97160.53;4998737;28;20049;-65